Home > Products > Valid Products > TAF

000
FTUS43 KPAH 311100
TAFCGI
TAF
KCGI 311132Z 3112/0112 00000KT 3SM BR SCT250
      TEMPO 3112/3113 1SM BR
     FM311400 19004KT P6SM SCT045 BKN250
     FM312300 VRB03KT P6SM FEW050 SCT100
     FM010800 00000KT 5SM BR SCT050 BKN090=



000
FTUS43 KPAH 311100
TAFEVV
TAF
KEVV 311132Z 3112/0112 00000KT P6SM SKC
     FM311500 21004KT P6SM SCT050
     FM010800 00000KT 4SM BR SCT060=



000
FTUS43 KPAH 311100
TAFPAH
TAF
KPAH 311132Z 3112/0112 00000KT 4SM BR FEW050 BKN250
     FM311300 21004KT P6SM SCT050 BKN250
     FM010700 00000KT 3SM BR SCT050 BKN100=



000
FTUS43 KPAH 310800 AAA
TAFPAH
TAF AMD
KPAH 310847Z 3109/0106 00000KT P6SM SCT050 BKN200
      TEMPO 3109/3113 3SM BR
     FM311500 22004KT P6SM BKN050=



000
FTUS43 KPAH 310800 AAA
TAFCGI
TAF AMD
KCGI 310847Z 3109/0106 00000KT 3SM BR SCT050 BKN200
      TEMPO 3109/3113 1SM BR
     FM311500 21005KT P6SM BKN050=



000
FTUS43 KPAH 310600 AAA
TAFPAH
TAF AMD
KPAH 310601Z 3106/0106 00000KT 4SM BR SCT050 BKN200
     FM311500 22004KT P6SM BKN050=



000
FTUS43 KPAH 310500
TAFCGI
TAF
KCGI 310520Z 3106/0106 VRB02KT P6SM SCT050 BKN200
     FM311500 21005KT P6SM BKN050=



000
FTUS43 KPAH 310500
TAFEVV
TAF
KEVV 310520Z 3106/0106 VRB02KT P6SM FEW070 BKN250
     FM311500 21004KT P6SM SCT050=



000
FTUS43 KPAH 310500
TAFPAH
TAF
KPAH 310520Z 3106/0106 VRB02KT P6SM SCT050 BKN200
     FM311500 22004KT P6SM BKN050=



000
FTUS43 KPAH 302300
TAFEVV
TAF
KEVV 302337Z 3100/3124 VRB02KT P6SM FEW070 BKN250
     FM311500 20004KT P6SM SCT050=



000
FTUS43 KPAH 302300
TAFPAH
TAF
KPAH 302337Z 3100/3124 VRB02KT P6SM SCT050 BKN100
     FM311500 22004KT P6SM BKN050=



000
FTUS43 KPAH 302300
TAFCGI
TAF
KCGI 302337Z 3100/3124 VRB02KT P6SM SCT050 BKN100
     FM311500 20005KT P6SM BKN050=



000
FTUS43 KPAH 301700
TAFPAH
TAF
KPAH 301720Z 3018/3118 24003KT P6SM SCT050 BKN090
     FM311500 21004KT P6SM SCT025 BKN050=



000
FTUS43 KPAH 301700
TAFEVV
TAF
KEVV 301720Z 3018/3118 25003KT P6SM SCT060 BKN130
     FM311500 20004KT P6SM SCT030 BKN060=



000
FTUS43 KPAH 301700
TAFCGI
TAF
KCGI 301720Z 3018/3118 23003KT P6SM SCT050 BKN090
     FM311500 20004KT P6SM SCT025 BKN050=



000
FTUS43 KPAH 301100
TAFCGI
TAF
KCGI 301120Z 3012/3112 00000KT P6SM SKC
     FM301300 25003KT P6SM BKN070
     FM310100 00000KT P6SM SKC=



000
FTUS43 KPAH 301100
TAFPAH
TAF
KPAH 301120Z 3012/3112 00000KT P6SM SKC
     FM301400 24005KT P6SM BKN070
     FM310100 00000KT P6SM SKC=



000
FTUS43 KPAH 301100
TAFEVV
TAF
KEVV 301120Z 3012/3112 00000KT P6SM SKC
     FM301500 26005KT P6SM SCT040 BKN250
     FM310100 00000KT P6SM SKC=



000
FTUS43 KPAH 300500
TAFCGI
TAF
KCGI 300520Z 3006/3106 00000KT P6SM SKC
      TEMPO 3009/3012 3SM BR
     FM301300 25003KT P6SM BKN070
     FM310100 00000KT P6SM SKC=



000
FTUS43 KPAH 300500
TAFPAH
TAF
KPAH 300520Z 3006/3106 00000KT P6SM SKC
      TEMPO 3010/3012 5SM BR
     FM301400 24005KT P6SM BKN070
     FM310100 00000KT P6SM SKC=



000
FTUS43 KPAH 300500
TAFEVV
TAF
KEVV 300520Z 3006/3106 00000KT P6SM SKC
     FM301500 26005KT P6SM SCT040 BKN250
     FM310100 00000KT P6SM SKC=



000
FTUS43 KPAH 292300
TAFCGI
TAF
KCGI 292335Z 3000/3024 VRB04KT P6SM SKC
     FM300100 00000KT P6SM SKC
      TEMPO 3009/3012 4SM BR
     FM301300 25003KT P6SM BKN070=



000
FTUS43 KPAH 292300
TAFPAH
TAF
KPAH 292335Z 3000/3024 VRB04KT P6SM SKC
     FM300100 00000KT P6SM SKC
      TEMPO 3009/3012 5SM BR
     FM301400 24005KT P6SM BKN070=



000
FTUS43 KPAH 292300
TAFEVV
TAF
KEVV 292335Z 3000/3024 30005KT P6SM SKC
     FM300100 00000KT P6SM SKC
      TEMPO 3009/3012 5SM BR
     FM301500 26005KT P6SM SCT040 BKN200=



000
FTUS43 KPAH 291700
TAFCGI
TAF
KCGI 291720Z 2918/3018 01006KT P6SM SCT060
     FM300100 00000KT P6SM SKC
     FM300900 00000KT P6SM SCT080 BKN250
     FM301500 20003KT P6SM SCT040 BKN080=



000
FTUS43 KPAH 291700
TAFEVV
TAF
KEVV 291720Z 2918/3018 32007KT P6SM SCT060
     FM300100 00000KT P6SM SKC
     FM300900 00000KT P6SM SCT150 BKN250
     FM301500 21003KT P6SM SCT040 BKN150=



000
FTUS43 KPAH 291700
TAFPAH
TAF
KPAH 291720Z 2918/3018 36007KT P6SM SCT060
     FM300100 00000KT P6SM SKC
     FM301000 00000KT P6SM SCT080 BKN250
     FM301500 20003KT P6SM SCT040 BKN080=



000
FTUS43 KPAH 291100
TAFPAH
TAF
KPAH 291120Z 2912/3012 36005KT P6SM SKC
     FM291500 34006KT P6SM SCT060
     FM300100 00000KT P6SM SKC=



000
FTUS43 KPAH 291100
TAFCGI
TAF
KCGI 291120Z 2912/3012 35004KT P6SM SKC
     FM291400 33006KT P6SM SCT060
     FM300100 00000KT P6SM SKC=



000
FTUS43 KPAH 291100
TAFEVV
TAF
KEVV 291120Z 2912/3012 32007KT P6SM BKN050
     FM300100 00000KT P6SM SKC=



000
FTUS43 KPAH 290500
TAFCGI
TAF
KCGI 290520Z 2906/3006 35004KT P6SM SKC
      TEMPO 2910/2912 4SM BR
     FM291400 35006KT P6SM SCT060
     FM300100 00000KT P6SM SKC=



000
FTUS43 KPAH 290500
TAFEVV
TAF
KEVV 290520Z 2906/3006 36005KT P6SM SKC
     FM291200 33007KT P6SM BKN050
     FM300100 VRB02KT P6SM SKC=



000
FTUS43 KPAH 290500
TAFPAH
TAF
KPAH 290520Z 2906/3006 36005KT P6SM SKC
     FM291500 34006KT P6SM SCT060
     FM300100 00000KT P6SM SKC=



000
FTUS43 KPAH 282300
TAFPAH
TAF
KPAH 282330Z 2900/2924 35010KT P6SM BKN080
     FM290100 35003KT P6SM SKC
     FM291600 34005KT P6SM SCT070=



000
FTUS43 KPAH 282300
TAFCGI
TAF
KCGI 282330Z 2900/2924 35009KT P6SM SCT080
     FM290100 35003KT P6SM SKC
      TEMPO 2909/2912 4SM BR
     FM291500 35005KT P6SM SCT070=



000
FTUS43 KPAH 282300
TAFEVV
TAF
KEVV 282330Z 2900/2924 34010KT P6SM FEW040
     FM290100 35003KT P6SM SKC
     FM291300 34007KT P6SM BKN060=



000
FTUS43 KPAH 281700
TAFCGI
TAF
KCGI 281720Z 2818/2918 32010KT P6SM BKN030
      TEMPO 2818/2822 33012G18KT SCT035
     FM290100 35003KT P6SM SKC
     FM291500 34005KT P6SM SCT035 BKN080=



000
FTUS43 KPAH 281700
TAFEVV
TAF
KEVV 281720Z 2818/2918 32010KT P6SM BKN035
      TEMPO 2818/2821 33012G18KT SCT040
     FM282100 33010KT P6SM SCT040
     FM290100 35003KT P6SM SKC
     FM291500 34006KT P6SM SCT035 BKN080=



000
FTUS43 KPAH 281700
TAFPAH
TAF
KPAH 281720Z 2818/2918 32010KT P6SM BKN030
      TEMPO 2818/2822 33012G18KT SCT035
     FM290100 35003KT P6SM SKC
     FM291500 34005KT P6SM SCT035 BKN080=



000
FTUS43 KPAH 281600 AAA
TAFEVV
TAF AMD
KEVV 281617Z 2816/2912 32010KT P6SM BKN035
      TEMPO 2818/2821 33012G18KT SCT040
     FM282100 33010KT P6SM SCT040
     FM290100 35003KT P6SM SKC=



000
FTUS43 KPAH 281600 AAA
TAFPAH
TAF AMD
KPAH 281616Z 2816/2912 32010KT P6SM BKN030
      TEMPO 2818/2822 33012G18KT SCT035
     FM290100 35003KT P6SM SKC=



000
FTUS43 KPAH 281600 AAA
TAFCGI
TAF AMD
KCGI 281616Z 2816/2912 32010KT P6SM BKN030
      TEMPO 2818/2822 33012G18KT SCT035
     FM290100 35003KT P6SM SKC=



    US Dept of Commerce
    National Oceanic and Atmospheric Administration
    National Weather Service
    1325 East West Highway
    Silver Spring, MD 20910
    Page Author: NWS Internet Services Team
Disclaimer
Information Quality
Credits
Glossary
Privacy Policy
Freedom of Information Act (FOIA)
About Us
Career Opportunities